Mount Holly, North Carolina
Current Conditions -  °F | °C
As of 5:21 AM on Monday 22 Dec 2014 (Local Time) from KCLT Reporting Station
Light Rain Light Rain  
Wind Chill: 32°   Ceiling: 700
Heat Index: 39°   Visibility: 1.5mi
Dew Point: 37°   Wind: 10mph
Humidity: 93%   Direction: 50°NE
Pressure: 30.11"   Gusts: NA
Location:  35.3°N, 81.02°W
Report Text: KCLT 221021Z 05009KT 1 1/2SM -RA BR OVC007 04/03 A3011 RMK AO2 SFC VIS 3 P0001
Loading
Personal Weather Stations






























Interactive Weather Map New forecast layout! Learn more

10-Day Weather Forecast

Advertisements
Track Severe Weather on mobile